createdAt,value
2022-08-05T00:04:08.407Z,99.90
2022-08-05T00:09:13.105Z,99.90
2022-08-05T00:14:18.155Z,99.90
2022-08-05T00:19:22.176Z,99.90
2022-08-05T00:24:30.914Z,99.90
2022-08-05T00:29:38.055Z,99.90
2022-08-05T00:34:54.423Z,99.90
2022-08-05T00:40:03.646Z,99.90
2022-08-05T00:45:13.575Z,99.90
2022-08-05T00:50:15.626Z,99.90
2022-08-05T00:55:17.487Z,99.90
2022-08-05T01:00:22.039Z,99.90
2022-08-05T01:05:28.353Z,99.90
2022-08-05T01:10:48.116Z,99.90
2022-08-05T01:16:04.979Z,99.90
2022-08-05T01:21:50.521Z,99.90
2022-08-05T01:27:17.932Z,99.90
2022-08-05T01:32:27.625Z,99.90
2022-08-05T01:37:37.354Z,99.90
2022-08-05T01:53:54.604Z,99.90
2022-08-05T01:58:45.816Z,99.90
2022-08-05T02:03:48.866Z,99.90
2022-08-05T02:08:58.352Z,99.90
2022-08-05T02:14:07.420Z,99.90
2022-08-05T02:19:46.892Z,99.90
2022-08-05T02:24:55.718Z,99.90
2022-08-05T02:30:01.210Z,99.90
2022-08-05T02:35:14.142Z,99.90
2022-08-05T02:40:18.686Z,99.90
2022-08-05T02:45:23.820Z,99.90
2022-08-05T02:50:27.528Z,99.90
2022-08-05T02:55:54.942Z,99.90
2022-08-05T03:00:56.761Z,99.90
2022-08-05T03:06:57.024Z,99.90
2022-08-05T03:11:56.973Z,99.90
2022-08-05T03:16:44.860Z,99.90
2022-08-05T03:21:48.852Z,99.90
2022-08-05T03:26:51.824Z,99.90
2022-08-05T03:31:56.900Z,99.90
2022-08-05T03:36:59.592Z,99.90
2022-08-05T03:42:01.502Z,99.90
2022-08-05T03:47:03.807Z,99.90
2022-08-05T03:52:49.296Z,99.90
2022-08-05T03:57:41.301Z,99.90
2022-08-05T04:02:58.188Z,99.90
2022-08-05T04:08:03.413Z,99.90
2022-08-05T04:13:08.109Z,99.90
2022-08-05T04:18:12.758Z,99.90
2022-08-05T04:23:57.338Z,99.90
2022-08-05T04:28:51.086Z,99.90
2022-08-05T04:34:18.029Z,99.90
2022-08-05T04:39:15.728Z,99.90
2022-08-05T04:44:21.389Z,99.90
2022-08-05T04:49:38.952Z,99.90
2022-08-05T04:54:53.163Z,99.90
2022-08-05T04:59:59.029Z,99.90
2022-08-05T05:05:02.187Z,99.90
2022-08-05T05:10:06.592Z,99.90
2022-08-05T05:15:10.859Z,99.90
2022-08-05T05:20:14.522Z,99.90
2022-08-05T05:25:17.446Z,99.90
2022-08-05T05:30:29.334Z,99.90
2022-08-05T05:35:37.932Z,99.90
2022-08-05T05:40:50.120Z,99.90
2022-08-05T05:45:53.365Z,99.90
2022-08-05T05:50:55.180Z,99.90
2022-08-05T05:56:00.871Z,99.90
2022-08-05T06:01:12.830Z,99.90
2022-08-05T06:06:17.019Z,99.90
2022-08-05T06:11:18.800Z,99.90
2022-08-05T06:16:28.474Z,99.90
2022-08-05T06:21:36.065Z,99.90
2022-08-05T06:26:51.999Z,99.90
2022-08-05T06:31:55.013Z,99.90
2022-08-05T06:36:59.232Z,99.90
2022-08-05T06:42:03.894Z,99.90
2022-08-05T06:47:06.114Z,99.90
2022-08-05T06:52:37.747Z,99.90
2022-08-05T06:58:02.900Z,99.90
2022-08-05T07:02:56.126Z,99.90
2022-08-05T07:07:57.871Z,99.90
2022-08-05T07:13:56.877Z,99.90
2022-08-05T07:18:47.683Z,99.90
2022-08-05T07:23:50.603Z,99.90
2022-08-05T07:28:54.127Z,99.90
2022-08-05T07:33:55.882Z,99.90
2022-08-05T07:39:06.782Z,99.90
2022-08-05T07:44:26.320Z,99.90
2022-08-05T07:49:28.291Z,99.50
2022-08-05T07:54:31.227Z,99.60
2022-08-05T07:59:39.800Z,98.90
2022-08-05T08:04:42.754Z,99.10
2022-08-05T08:09:47.477Z,97.20
2022-08-05T08:14:50.435Z,97.40
2022-08-05T08:20:42.950Z,98.00
2022-08-05T08:25:15.650Z,97.40
2022-08-05T08:30:29.523Z,97.20
2022-08-05T08:35:41.371Z,97.60
2022-08-05T08:40:54.749Z,97.00
2022-08-05T08:46:01.550Z,96.20
2022-08-05T08:52:04.306Z,95.80
2022-08-05T08:56:27.078Z,95.30
2022-08-05T09:01:29.266Z,94.50
2022-08-05T09:06:31.545Z,94.80
2022-08-05T09:11:53.770Z,93.70
2022-08-05T09:16:56.561Z,93.70
2022-08-05T09:22:17.761Z,94.80
2022-08-05T09:28:04.126Z,95.00
2022-08-05T09:33:02.534Z,95.10
2022-08-05T09:38:15.989Z,94.30
2022-08-05T09:43:40.538Z,93.80
2022-08-05T09:48:43.722Z,93.10
2022-08-05T09:54:08.525Z,94.10
2022-08-05T09:59:17.234Z,93.70
2022-08-05T10:04:19.077Z,93.20
2022-08-05T10:09:45.307Z,93.50
2022-08-05T10:14:47.305Z,92.70
2022-08-05T10:20:03.999Z,92.60
2022-08-05T10:25:14.425Z,92.60
2022-08-05T10:32:46.919Z,92.30
2022-08-05T10:35:40.537Z,92.20
2022-08-05T10:40:57.989Z,93.40
2022-08-05T10:46:06.188Z,91.40
2022-08-05T10:51:21.928Z,91.70
2022-08-05T10:56:29.203Z,92.30
2022-08-05T11:01:55.180Z,90.70
2022-08-05T11:07:07.037Z,91.00
2022-08-05T11:12:34.848Z,91.70
2022-08-05T11:17:56.852Z,91.20
2022-08-05T11:23:21.278Z,90.70
2022-08-05T11:28:26.978Z,90.40
2022-08-05T11:33:43.973Z,90.80
2022-08-05T11:38:51.220Z,90.70
2022-08-05T11:44:04.443Z,91.70
2022-08-05T11:49:15.908Z,90.60
2022-08-05T11:54:33.753Z,90.60
2022-08-05T11:59:49.750Z,90.00
2022-08-05T12:04:59.172Z,91.30
2022-08-05T12:10:09.435Z,92.20
2022-08-05T12:15:38.022Z,91.70
2022-08-05T12:20:41.371Z,91.30
2022-08-05T12:26:09.611Z,90.50
2022-08-05T12:31:11.376Z,90.90
2022-08-05T12:36:25.318Z,90.80
2022-08-05T12:41:34.443Z,89.00
2022-08-05T12:46:39.610Z,89.00
2022-08-05T12:52:12.308Z,92.10
2022-08-05T12:57:12.839Z,92.60
2022-08-05T13:02:27.237Z,90.50
2022-08-05T13:07:57.527Z,91.00
2022-08-05T13:12:58.191Z,90.30
2022-08-05T13:18:00.504Z,89.30
2022-08-05T13:23:07.297Z,91.60
2022-08-05T13:28:10.515Z,90.50
2022-08-05T13:33:14.413Z,89.70
2022-08-05T13:38:38.264Z,80.20
2022-08-05T13:43:55.068Z,78.90
2022-08-05T13:49:00.680Z,79.20
2022-08-05T13:54:02.983Z,77.70
2022-08-05T13:59:05.968Z,75.80
2022-08-05T14:04:39.678Z,76.00
2022-08-05T14:09:45.953Z,76.30
2022-08-05T14:14:48.537Z,76.00
2022-08-05T14:19:56.804Z,77.00
2022-08-05T14:25:06.367Z,74.00
2022-08-05T14:30:21.529Z,75.60
2022-08-05T14:35:23.469Z,75.80
2022-08-05T14:45:45.662Z,78.10
2022-08-05T14:50:47.454Z,80.50
2022-08-05T14:55:52.550Z,81.60
2022-08-05T15:00:58.549Z,82.90
2022-08-05T15:06:13.088Z,83.40
2022-08-05T15:11:15.516Z,84.10
2022-08-05T15:16:17.953Z,84.00
2022-08-05T15:21:21.084Z,84.20
2022-08-05T15:26:31.928Z,84.30
2022-08-05T15:31:34.783Z,84.60
2022-08-05T15:36:36.828Z,85.10
2022-08-05T15:41:55.625Z,87.00
2022-08-05T15:47:01.706Z,87.70
2022-08-05T15:52:16.554Z,88.70
2022-08-05T15:57:19.826Z,89.00
2022-08-05T16:02:25.623Z,89.20
2022-08-05T16:07:29.862Z,88.80
2022-08-05T16:12:31.604Z,91.60
2022-08-05T16:17:33.692Z,92.20
2022-08-05T16:22:35.600Z,92.20
2022-08-05T16:27:59.654Z,92.10
2022-08-05T16:33:02.024Z,91.60
2022-08-05T16:38:24.166Z,91.90
2022-08-05T16:43:27.529Z,91.80
2022-08-05T16:48:33.946Z,91.90
2022-08-05T16:54:02.527Z,91.90
2022-08-05T16:59:07.677Z,92.10
2022-08-05T17:04:10.315Z,92.60
2022-08-05T17:09:12.205Z,92.40
2022-08-05T17:14:22.188Z,92.60
2022-08-05T17:19:36.602Z,93.00
2022-08-05T17:24:42.815Z,93.30
2022-08-05T17:29:59.727Z,93.40
2022-08-05T17:35:05.100Z,93.50
2022-08-05T17:40:12.764Z,93.70
2022-08-05T17:45:20.055Z,93.90
2022-08-05T17:50:30.526Z,94.10
2022-08-05T17:55:38.350Z,94.60
2022-08-05T18:00:45.006Z,94.80
2022-08-05T18:05:52.924Z,94.50
2022-08-05T18:10:55.511Z,95.00
2022-08-05T18:15:59.108Z,95.40
2022-08-05T18:21:00.940Z,95.40
2022-08-05T18:26:03.406Z,96.10
2022-08-05T18:31:07.194Z,95.50
2022-08-05T18:36:15.331Z,97.10
2022-08-05T18:41:55.477Z,97.00
2022-08-05T18:46:41.260Z,97.60
2022-08-05T18:52:09.149Z,97.10
2022-08-05T18:57:15.027Z,98.20
2022-08-05T19:02:26.737Z,98.00
2022-08-05T19:07:45.959Z,98.50
2022-08-05T19:12:49.150Z,98.60
2022-08-05T19:18:08.083Z,99.30
2022-08-05T19:24:04.970Z,99.20
2022-08-05T19:28:34.945Z,99.50
2022-08-05T19:33:38.087Z,99.80
2022-08-05T19:38:43.769Z,99.90
2022-08-05T19:44:06.822Z,99.90
2022-08-05T19:49:07.973Z,99.90
2022-08-05T19:54:25.579Z,99.90
2022-08-05T19:59:55.368Z,99.90
2022-08-05T20:04:59.178Z,99.90
2022-08-05T20:10:01.262Z,99.90
2022-08-05T20:15:03.176Z,99.90
2022-08-05T20:20:09.455Z,99.90
2022-08-05T20:25:12.697Z,99.90
2022-08-05T20:30:14.520Z,99.90
2022-08-05T20:35:20.114Z,99.90
2022-08-05T20:40:21.934Z,99.90
2022-08-05T20:45:23.751Z,99.90
2022-08-05T20:50:46.892Z,99.90
2022-08-05T20:55:56.886Z,99.90
2022-08-05T21:01:10.451Z,99.90
2022-08-05T21:06:28.342Z,99.90
2022-08-05T21:12:09.146Z,99.90
2022-08-05T21:16:53.266Z,99.90
2022-08-05T21:21:55.286Z,99.90
2022-08-05T21:26:58.246Z,99.90
2022-08-05T21:32:02.128Z,99.90
2022-08-05T21:37:05.142Z,99.90
2022-08-05T21:42:07.290Z,99.90
2022-08-05T21:47:55.257Z,99.90
2022-08-05T21:52:50.780Z,99.90
2022-08-05T21:57:52.716Z,99.90
2022-08-05T22:02:55.288Z,99.90
2022-08-05T22:07:59.303Z,99.90
2022-08-05T22:13:08.580Z,99.90
2022-08-05T22:18:11.267Z,99.90
2022-08-05T22:24:00.818Z,99.90
2022-08-05T22:28:53.136Z,99.90
2022-08-05T22:33:57.049Z,99.90
2022-08-05T22:39:09.522Z,99.90
2022-08-05T22:44:12.370Z,99.90
2022-08-05T22:49:46.095Z,99.90
2022-08-05T22:54:36.725Z,99.90
2022-08-05T22:59:43.985Z,99.90
2022-08-05T23:04:51.632Z,99.90
2022-08-05T23:10:01.134Z,99.90
2022-08-05T23:15:08.874Z,99.90
2022-08-05T23:20:17.783Z,99.90
2022-08-05T23:25:52.960Z,99.90
2022-08-05T23:30:43.961Z,99.90
2022-08-05T23:35:56.158Z,99.90
2022-08-05T23:40:58.231Z,99.90
2022-08-05T23:45:59.977Z,99.90
2022-08-05T23:51:02.812Z,99.90
2022-08-05T23:56:04.838Z,99.90
